Time;durP1;ratioP1;P1;durP2;ratioP2;P2;SDS_P1;SDS_P2;PMS_P1;PMS_P2;Temp;Humidity;BMP_temperature;BMP_pressure;BME280_temperature;BME280_humidity;BME280_pressure;Samples;Min_cycle;Max_cycle;Signal;HPM_P1;HPM_P2
2022/06/01 00:00:10;;;;;;;14.75;5.58;;;;;;;18.21;100.00;99058.88;1698360;83;21048;-78
2022/06/01 00:02:38;;;;;;;12.37;5.75;;;;;;;18.17;100.00;99050.88;1698568;84;21091;-77
2022/06/01 00:05:07;;;;;;;11.70;5.10;;;;;;;18.14;100.00;99044.52;1698537;84;21032;-77
2022/06/01 00:07:35;;;;;;;9.73;5.08;;;;;;;18.13;100.00;99040.11;1699173;84;21048;-78
2022/06/01 00:10:01;;;;;;;14.10;5.40;;;;;;;18.09;100.00;99031.56;1699637;84;21009;-78
2022/06/01 00:14:57;;;;;;;16.05;5.67;;;;;;;18.03;100.00;99005.20;1679069;85;21066;-78
2022/06/01 00:17:24;;;;;;;10.50;4.92;;;;;;;17.99;100.00;98999.95;1679056;85;21089;-79
2022/06/01 00:19:51;;;;;;;15.72;5.25;;;;;;;17.94;100.00;98995.74;1679117;85;21058;-79
2022/06/01 00:22:18;;;;;;;12.63;5.25;;;;;;;17.90;100.00;98976.78;1679148;85;21098;-79
2022/06/01 00:24:46;;;;;;;11.85;5.45;;;;;;;17.88;100.00;98959.25;1679202;85;21048;-79
2022/06/01 00:27:13;;;;;;;13.32;5.85;;;;;;;17.86;100.00;98949.09;1679100;85;20991;-79
2022/06/01 00:29:41;;;;;;;11.55;5.00;;;;;;;17.86;100.00;98933.23;1679155;85;21010;-79
2022/06/01 00:32:11;;;;;;;13.38;5.03;;;;;;;17.85;100.00;98926.91;1679215;85;21122;-79
2022/06/01 00:34:39;;;;;;;7.55;4.75;;;;;;;17.87;100.00;98919.87;1679145;85;21516;-79
2022/06/01 00:37:05;;;;;;;10.05;4.60;;;;;;;17.87;100.00;98910.30;1679037;84;21615;-79
2022/06/01 00:39:32;;;;;;;9.55;4.58;;;;;;;17.86;100.00;98912.18;1652441;85;21021;-79
2022/06/01 00:42:18;;;;;;;11.03;4.55;;;;;;;17.87;100.00;98907.02;1639683;87;21053;-79
2022/06/01 00:44:47;;;;;;;13.93;4.85;;;;;;;17.87;100.00;98905.65;1575476;91;21070;-78
2022/06/01 00:47:16;;;;;;;11.08;4.85;;;;;;;17.87;100.00;98913.03;1562420;91;21035;-79
2022/06/01 00:49:47;;;;;;;8.98;4.08;;;;;;;17.86;100.00;98921.75;1551745;92;21101;-79
2022/06/01 00:52:14;;;;;;;10.05;4.55;;;;;;;17.90;100.00;98928.41;1551749;92;21146;-79
2022/06/01 00:54:41;;;;;;;11.00;4.92;;;;;;;17.89;100.00;98944.52;1551801;91;21123;-79
2022/06/01 00:57:09;;;;;;;11.80;4.67;;;;;;;17.89;100.00;98950.52;1551989;92;21018;-79
2022/06/01 00:59:39;;;;;;;12.00;4.92;;;;;;;17.86;100.00;98960.03;1551808;92;21093;-76
2022/06/01 01:02:08;;;;;;;8.95;4.83;;;;;;;17.82;100.00;98963.77;1551896;92;21081;-79
2022/06/01 01:04:36;;;;;;;13.10;4.50;;;;;;;17.78;100.00;98959.87;1552136;92;21126;-79
2022/06/01 01:07:06;;;;;;;8.60;4.60;;;;;;;17.75;100.00;98948.59;1552031;92;21090;-78
2022/06/01 01:09:35;;;;;;;10.93;4.47;;;;;;;17.72;100.00;98943.61;1551702;92;21129;-77
2022/06/01 01:12:06;;;;;;;13.90;5.00;;;;;;;17.69;100.00;98942.20;1551756;92;21118;-79
2022/06/01 01:14:37;;;;;;;11.53;4.20;;;;;;;17.67;100.00;98939.41;1578462;90;21080;-79
2022/06/01 01:17:05;;;;;;;9.80;4.33;;;;;;;17.64;100.00;98927.07;1578395;90;21565;-79
2022/06/01 01:19:40;;;;;;;12.03;4.60;;;;;;;17.62;100.00;98912.28;1578669;91;21107;-79
2022/06/01 01:22:36;;;;;;;13.08;5.17;;;;;;;17.61;100.00;98902.95;1578533;91;21080;-77
2022/06/01 01:25:29;;;;;;;11.28;4.70;;;;;;;17.60;100.00;98914.95;1578084;91;21154;-78
2022/06/01 01:27:58;;;;;;;10.23;4.50;;;;;;;17.58;100.00;98904.80;1580754;90;21045;-77
2022/06/01 01:30:39;;;;;;;8.63;4.25;;;;;;;17.56;100.00;98896.02;1580891;91;21002;-78
2022/06/01 01:33:15;;;;;;;10.78;4.62;;;;;;;17.54;100.00;98898.99;1563368;92;21126;-78
2022/06/01 01:35:47;;;;;;;13.00;4.40;;;;;;;17.52;100.00;98888.85;1563437;92;21170;-79
2022/06/01 01:38:21;;;;;;;11.25;4.10;;;;;;;17.50;100.00;98880.07;1560105;91;21146;-79
2022/06/01 01:41:07;;;;;;;;;;;;;;;17.48;100.00;98865.83;1464842;96;21080;-78
2022/06/01 01:43:43;;;;;;;12.13;4.90;;;;;;;17.47;100.00;98857.33;1502563;96;20218;-78
2022/06/01 01:46:10;;;;;;;12.40;5.05;;;;;;;17.43;100.00;98837.86;1501043;95;21077;-79
2022/06/01 01:48:37;;;;;;;15.32;4.78;;;;;;;17.44;100.00;98831.84;1480457;97;21160;-77
2022/06/01 01:51:05;;;;;;;10.70;4.60;;;;;;;17.42;100.00;98817.09;1480721;97;21116;-79
2022/06/01 01:53:32;;;;;;;11.50;4.90;;;;;;;17.40;100.00;98802.00;1480765;97;21104;-79
2022/06/01 01:56:13;;;;;;;12.00;5.12;;;;;;;17.40;100.00;98780.96;1480667;97;21091;-77
2022/06/01 01:59:33;;;;;;;9.23;5.60;;;;;;;17.41;100.00;98781.27;1480569;97;21168;-78
2022/06/01 02:02:29;;;;;;;17.52;6.72;;;;;;;17.40;100.00;98761.84;1480728;96;21161;-78
2022/06/01 02:08:15;;;;;;;14.63;4.95;;;;;;;17.45;100.00;98726.41;1533848;93;21633;-76
2022/06/01 02:13:29;;;;;;;10.53;4.70;;;;;;;17.48;100.00;98701.87;1564301;92;21059;-78
2022/06/01 02:15:55;;;;;;;12.65;5.53;;;;;;;17.51;100.00;98693.70;1564257;90;21123;-78
2022/06/01 02:18:27;;;;;;;10.75;4.92;;;;;;;17.53;100.00;98703.84;1564320;92;21072;-77
2022/06/01 02:20:59;;;;;;;10.88;4.62;;;;;;;17.53;100.00;98711.52;1564128;92;21110;-77
2022/06/01 02:23:26;;;;;;;14.50;4.30;;;;;;;17.54;100.00;98709.06;1530194;94;21055;-77
2022/06/01 02:25:55;;;;;;;12.60;4.53;;;;;;;17.56;100.00;98734.23;1521391;93;21099;-77
2022/06/01 02:28:22;;;;;;;11.40;4.47;;;;;;;17.60;100.00;98738.66;1518330;93;21132;-78
2022/06/01 02:30:50;;;;;;;11.73;4.40;;;;;;;17.63;100.00;98737.63;1518392;94;21133;-78
2022/06/01 02:33:20;;;;;;;11.83;4.72;;;;;;;17.66;100.00;98748.61;1518659;95;21072;-78
2022/06/01 02:35:52;;;;;;;8.57;4.40;;;;;;;17.73;100.00;98767.04;1518574;94;21052;-77
2022/06/01 02:38:37;;;;;;;11.97;4.75;;;;;;;17.73;100.00;98767.04;1518312;93;21461;-76
2022/06/01 02:41:04;;;;;;;13.68;5.17;;;;;;;17.76;100.00;98782.95;1454220;99;21128;-75
2022/06/01 02:43:34;;;;;;;13.10;5.03;;;;;;;17.79;100.00;98782.98;1490707;90;21076;-76
2022/06/01 02:46:01;;;;;;;13.40;5.45;;;;;;;17.81;100.00;98784.41;1589021;90;21116;-76
2022/06/01 02:48:29;;;;;;;12.33;4.58;;;;;;;17.86;100.00;98796.52;1588768;90;21088;-76
2022/06/01 02:50:56;;;;;;;10.70;4.60;;;;;;;17.91;100.00;98813.83;1588612;90;21088;-77
2022/06/01 02:53:22;;;;;;;11.53;4.75;;;;;;;17.93;100.00;98825.89;1588975;90;21049;-77
2022/06/01 02:55:50;;;;;;;16.55;4.95;;;;;;;17.96;100.00;98828.95;1588737;90;21080;-77
2022/06/01 02:58:16;;;;;;;11.05;4.25;;;;;;;17.98;100.00;98836.37;1588717;89;21076;-76
2022/06/01 03:00:43;;;;;;;10.48;4.10;;;;;;;18.02;100.00;98847.64;1588621;90;21076;-76
2022/06/01 03:03:10;;;;;;;9.95;4.03;;;;;;;18.07;100.00;98856.48;1588629;89;21084;-77
2022/06/01 03:05:40;;;;;;;15.72;5.00;;;;;;;18.10;100.00;98862.28;1588595;90;22034;-71
2022/06/01 03:08:08;;;;;;;14.28;4.55;;;;;;;18.11;100.00;98872.13;1587888;90;21088;-71
2022/06/01 03:10:35;;;;;;;12.15;4.70;;;;;;;18.13;100.00;98873.24;1587694;90;21565;-70
2022/06/01 03:13:02;;;;;;;9.48;4.03;;;;;;;18.14;100.00;98883.94;1587963;90;21063;-71
2022/06/01 03:15:29;;;;;;;14.90;4.75;;;;;;;18.16;100.00;98895.45;1587750;90;21060;-71
2022/06/01 03:17:57;;;;;;;10.58;4.83;;;;;;;18.19;100.00;98898.25;1587834;90;21203;-70
2022/06/01 03:20:27;;;;;;;9.30;4.20;;;;;;;18.21;100.00;98908.41;1616469;88;21647;-70
2022/06/01 03:22:54;;;;;;;10.00;4.80;;;;;;;18.23;100.00;98903.51;1603768;88;21120;-72
2022/06/01 03:25:22;;;;;;;10.30;4.65;;;;;;;18.25;100.00;98904.08;1637879;86;21042;-69
2022/06/01 03:27:51;;;;;;;9.75;4.12;;;;;;;18.28;100.00;98915.91;1605547;89;21532;-71
2022/06/01 03:30:19;;;;;;;11.30;4.80;;;;;;;18.31;100.00;98912.68;1580830;90;21066;-72
2022/06/01 03:32:47;;;;;;;13.83;4.85;;;;;;;18.34;100.00;98919.03;1581050;91;21094;-71
2022/06/01 03:35:16;;;;;;;14.40;4.60;;;;;;;18.38;100.00;98924.28;1581103;91;21579;-72
2022/06/01 03:37:42;;;;;;;12.00;4.40;;;;;;;18.41;100.00;98928.41;1619804;86;21041;-71
2022/06/01 03:40:10;;;;;;;15.90;4.60;;;;;;;18.48;100.00;98929.08;1686338;85;21051;-71
2022/06/01 03:42:37;;;;;;;11.30;4.42;;;;;;;18.52;100.00;98923.41;1668522;86;21389;-70
2022/06/01 03:47:51;;;;;;;10.78;4.50;;;;;;;18.58;100.00;98937.45;1715844;83;21456;-71
2022/06/01 03:50:18;;;;;;;14.50;4.67;;;;;;;18.59;100.00;98930.91;1713945;83;20979;-71
2022/06/01 03:52:46;;;;;;;8.40;4.25;;;;;;;18.62;100.00;98935.04;1713573;83;21006;-70
2022/06/01 03:55:14;;;;;;;9.98;4.08;;;;;;;18.73;100.00;98938.75;1713833;83;21030;-70
2022/06/01 03:57:42;;;;;;;9.23;4.33;;;;;;;18.81;100.00;98945.73;1713980;83;21062;-70
2022/06/01 04:00:14;;;;;;;8.33;4.50;;;;;;;18.89;100.00;98962.59;1713885;84;21512;-71
2022/06/01 04:02:41;;;;;;;10.55;4.33;;;;;;;18.96;100.00;98970.09;1714359;83;21559;-72
2022/06/01 04:05:09;;;;;;;14.90;4.80;;;;;;;19.01;100.00;98995.89;1713731;83;21040;-70
2022/06/01 04:07:36;;;;;;;12.33;4.10;;;;;;;19.07;100.00;99016.78;1713640;83;21065;-71
2022/06/01 04:10:03;;;;;;;12.37;4.65;;;;;;;19.16;100.00;99026.26;1714123;83;20997;-70
2022/06/01 04:12:32;;;;;;;14.43;5.20;;;;;;;19.29;100.00;99031.91;1714185;84;21057;-70
2022/06/01 04:14:59;;;;;;;12.28;4.53;;;;;;;19.41;100.00;99039.48;1713871;84;21049;-70
2022/06/01 04:17:26;;;;;;;13.05;5.25;;;;;;;19.56;100.00;99045.70;1714080;84;21542;-71
2022/06/01 04:19:53;;;;;;;12.50;5.20;;;;;;;19.72;100.00;99064.02;1713900;84;21022;-69
2022/06/01 04:22:20;;;;;;;10.70;4.53;;;;;;;19.91;100.00;99078.25;1713793;84;21507;-71
2022/06/01 04:24:46;;;;;;;13.25;4.90;;;;;;;20.13;100.00;99095.23;1713780;83;21056;-70
2022/06/01 04:27:13;;;;;;;11.75;4.80;;;;;;;20.35;100.00;99116.36;1713888;84;21020;-71
2022/06/01 04:29:41;;;;;;;12.95;5.08;;;;;;;20.57;100.00;99140.47;1713584;83;21109;-71
2022/06/01 04:32:17;;;;;;;12.35;5.17;;;;;;;20.80;100.00;99164.08;1713849;83;21010;-71
2022/06/01 04:34:44;;;;;;;13.50;5.12;;;;;;;21.04;100.00;99179.70;1710839;84;21041;-70
2022/06/01 04:37:11;;;;;;;13.72;5.58;;;;;;;21.25;100.00;99215.63;1713836;83;21073;-71
2022/06/01 04:39:37;;;;;;;13.85;5.47;;;;;;;21.41;100.00;99257.84;1730490;82;21446;-71
2022/06/01 04:42:06;;;;;;;13.58;5.22;;;;;;;21.56;100.00;99301.17;1737567;83;21490;-70
2022/06/01 04:44:33;;;;;;;14.58;4.92;;;;;;;21.74;100.00;99328.30;1737469;83;20984;-71
2022/06/01 04:46:59;;;;;;;13.90;5.30;;;;;;;21.95;100.00;99344.41;1727303;83;20998;-72
2022/06/01 04:49:26;;;;;;;17.48;5.67;;;;;;;22.17;100.00;99379.29;1713736;83;20994;-70
2022/06/01 04:51:54;;;;;;;12.88;5.25;;;;;;;22.29;100.00;99424.55;1713291;83;21105;-70
2022/06/01 04:54:20;;;;;;;13.18;4.80;;;;;;;22.32;100.00;99454.33;1713760;83;21461;-69
2022/06/01 04:56:48;;;;;;;14.03;5.00;;;;;;;22.41;100.00;99456.05;1713460;84;20990;-70
2022/06/01 04:59:17;;;;;;;16.32;4.83;;;;;;;22.58;100.00;99475.20;1713720;83;21046;-72
2022/06/01 05:01:45;;;;;;;15.50;5.10;;;;;;;22.65;100.00;99504.73;1713719;83;20986;-70
2022/06/01 05:04:12;;;;;;;17.50;5.40;;;;;;;22.69;100.00;99520.45;1713676;83;21047;-71
2022/06/01 05:06:38;;;;;;;20.65;5.12;;;;;;;22.77;100.00;99529.33;1713797;84;21017;-71
2022/06/01 05:09:05;;;;;;;12.25;4.90;;;;;;;22.87;100.00;99533.54;1713810;83;21475;-70
2022/06/01 05:11:34;;;;;;;15.40;5.28;;;;;;;22.97;100.00;99555.67;1753125;82;21013;-71
2022/06/01 05:14:01;;;;;;;17.55;8.45;;;;;;;23.03;100.00;99578.59;1754984;82;21020;-70
2022/06/01 05:16:28;;;;;;;13.32;5.53;;;;;;;23.18;100.00;99575.13;1755169;82;21045;-70
2022/06/01 05:18:55;;;;;;;18.92;6.90;;;;;;;23.38;100.00;99599.27;1755203;82;21060;-69
2022/06/01 05:21:22;;;;;;;25.48;14.28;;;;;;;23.52;100.00;99621.70;1755597;82;21009;-70
2022/06/01 05:23:49;;;;;;;14.07;5.55;;;;;;;23.66;100.00;99643.02;1755321;81;21061;-70
2022/06/01 05:26:16;;;;;;;10.15;5.20;;;;;;;23.85;100.00;99658.63;1755046;81;21514;-70
2022/06/01 05:28:43;;;;;;;17.45;6.55;;;;;;;24.06;100.00;99673.36;1754648;81;21069;-70
2022/06/01 05:31:11;;;;;;;14.25;5.53;;;;;;;24.20;100.00;99698.53;1754961;82;21486;-71
2022/06/01 05:33:39;;;;;;;15.13;6.05;;;;;;;24.31;100.00;99714.62;1755346;82;21522;-73
2022/06/01 05:36:07;;;;;;;12.82;5.80;;;;;;;24.45;100.00;99732.89;1755529;81;21001;-72
2022/06/01 05:38:33;;;;;;;13.08;5.70;;;;;;;24.59;100.00;99741.55;1750755;81;21514;-72
2022/06/01 05:41:01;;;;;;;17.12;6.50;;;;;;;24.82;100.00;99745.23;1737512;83;21000;-73
2022/06/01 05:43:28;;;;;;;15.95;5.62;;;;;;;25.01;100.00;99779.27;1737473;83;21044;-74
2022/06/01 05:45:56;;;;;;;15.78;6.17;;;;;;;25.19;100.00;99783.45;1737134;83;21824;-72
2022/06/01 05:48:24;;;;;;;21.93;8.25;;;;;;;25.47;100.00;99789.61;1737075;83;21052;-72
2022/06/01 05:50:51;;;;;;;29.90;18.42;;;;;;;25.71;100.00;99808.72;1737181;83;21184;-73
2022/06/01 05:53:17;;;;;;;17.23;6.80;;;;;;;25.91;100.00;99823.66;1737690;83;21075;-74
2022/06/01 05:55:44;;;;;;;13.70;5.92;;;;;;;26.07;100.00;99830.86;1737934;83;21075;-73
2022/06/01 05:58:21;;;;;;;13.98;5.70;;;;;;;26.32;100.00;99847.17;1737783;83;21004;-74
2022/06/01 06:00:49;;;;;;;20.20;7.08;;;;;;;26.59;100.00;99860.67;1655606;87;21062;-73
2022/06/01 06:03:18;;;;;;;15.78;6.62;;;;;;;26.66;100.00;99885.38;1655546;87;21537;-72
2022/06/01 06:08:32;;;;;;;17.82;6.03;;;;;;;26.64;100.00;99904.23;1670521;86;21063;-74
2022/06/01 06:11:00;;;;;;;11.60;5.50;;;;;;;26.67;100.00;99905.89;1670869;85;21200;-73
2022/06/01 06:13:28;;;;;;;16.30;6.10;;;;;;;26.81;100.00;99913.06;1660389;86;21102;-74
2022/06/01 06:15:55;;;;;;;16.40;5.87;;;;;;;26.97;100.00;99909.68;1670579;84;21045;-74
2022/06/01 06:18:22;;;;;;;14.35;5.30;;;;;;;27.14;100.00;99912.66;1670753;86;21093;-73
2022/06/01 06:20:49;;;;;;;23.52;6.22;;;;;;;27.33;100.00;99912.31;1660828;86;21128;-72
2022/06/01 06:23:15;;;;;;;13.93;4.95;;;;;;;27.48;100.00;99918.89;1680783;85;21095;-74
2022/06/01 06:25:42;;;;;;;21.25;5.78;;;;;;;27.52;100.00;99931.92;1652712;86;21107;-70
2022/06/01 06:28:10;;;;;;;15.55;5.20;;;;;;;27.57;100.00;99930.52;1654457;87;21101;-71
2022/06/01 06:30:37;;;;;;;15.90;5.22;;;;;;;27.69;100.00;99941.25;1654154;87;21058;-73
2022/06/01 06:33:04;;;;;;;17.85;5.37;;;;;;;27.81;100.00;99936.73;1655661;87;21074;-71
2022/06/01 06:35:31;;;;;;;19.32;5.85;;;;;;;27.88;100.00;99942.80;1655511;87;21552;-71
2022/06/01 06:37:57;;;;;;;15.08;5.47;;;;;;;27.94;100.00;99938.06;1654215;87;21046;-72
2022/06/01 06:40:24;;;;;;;13.72;5.42;;;;;;;28.00;100.00;99946.08;1654943;87;21595;-68
2022/06/01 06:42:52;;;;;;;14.73;5.58;;;;;;;27.97;100.00;99953.59;1654709;87;21074;-73
2022/06/01 06:45:20;;;;;;;15.38;5.62;;;;;;;27.87;100.00;99952.27;1654362;87;21109;-73
2022/06/01 06:47:47;;;;;;;16.90;5.97;;;;;;;27.82;100.00;99948.13;1651142;86;21469;-71
2022/06/01 06:50:15;;;;;;;19.25;7.22;;;;;;;27.88;100.00;99944.75;1713384;84;21558;-74
2022/06/01 06:52:42;;;;;;;19.57;5.87;;;;;;;27.99;100.00;99942.19;1713376;84;21057;-70
2022/06/01 06:55:09;;;;;;;17.52;7.78;;;;;;;28.20;100.00;99947.84;1713234;84;21069;-71
2022/06/01 06:57:36;;;;;;;13.18;5.83;;;;;;;28.35;100.00;99935.78;1702912;84;21540;-70
2022/06/01 07:00:07;;;;;;;16.95;5.33;;;;;;;28.55;100.00;99943.69;1691801;85;21035;-74
2022/06/01 07:02:35;;;;;;;17.07;5.42;;;;;;;28.57;100.00;99946.44;1692500;84;21026;-72
2022/06/01 07:05:04;;;;;;;22.65;6.42;;;;;;;28.57;100.00;99942.26;1691694;84;21498;-73
2022/06/01 07:07:30;;;;;;;17.57;6.25;;;;;;;28.63;100.00;99938.86;1682416;85;21033;-73
2022/06/01 07:09:57;;;;;;;14.95;5.70;;;;;;;28.80;100.00;99940.37;1724886;83;21042;-71
2022/06/01 07:12:23;;;;;;;16.35;5.28;;;;;;;29.05;100.00;99942.84;1724984;83;21029;-71
2022/06/01 07:14:51;;;;;;;14.20;5.85;;;;;;;29.24;100.00;99944.33;1723606;83;21061;-72
2022/06/01 07:17:18;;;;;;;18.98;6.25;;;;;;;29.32;100.00;99944.21;1723537;83;21069;-74
2022/06/01 07:19:45;;;;;;;24.37;6.83;;;;;;;29.41;100.00;99942.98;1722950;83;21294;-70
2022/06/01 07:22:12;;;;;;;23.15;6.92;;;;;;;29.42;100.00;99945.48;1723369;83;20989;-70
2022/06/01 07:24:39;;;;;;;15.85;5.87;;;;;;;29.43;100.00;99940.72;1723306;83;21065;-72
2022/06/01 07:27:06;;;;;;;20.50;6.80;;;;;;;29.52;100.00;99944.52;1730413;83;21033;-72
2022/06/01 07:29:33;;;;;;;21.55;6.83;;;;;;;29.69;100.00;99937.87;1733035;83;21036;-71
2022/06/01 07:32:00;;;;;;;17.80;7.33;;;;;;;29.96;100.00;99935.52;1733291;83;21033;-72
2022/06/01 07:34:27;;;;;;;19.92;7.12;;;;;;;30.24;100.00;99933.13;1733683;83;21067;-71
2022/06/01 07:43:05;;;;;;;15.83;5.78;;;;;;;30.53;100.00;99932.08;1732659;83;21124;-71
2022/06/01 07:44:53;;;;;;;23.20;13.28;;;;;;;31.06;100.00;99941.97;1734818;83;21357;-72
2022/06/01 07:47:20;;;;;;;17.92;9.35;;;;;;;31.09;100.00;99950.28;1731572;82;20996;-73
2022/06/01 07:49:47;;;;;;;16.45;6.05;;;;;;;31.26;100.00;99942.10;1729288;83;20962;-78
2022/06/01 07:52:14;;;;;;;13.35;5.47;;;;;;;31.52;100.00;99942.95;1745531;82;21525;-72
2022/06/01 07:54:42;;;;;;;15.83;5.92;;;;;;;31.67;100.00;99945.98;1747918;82;21510;-73
2022/06/01 07:57:11;;;;;;;35.78;7.60;;;;;;;31.68;100.00;99938.69;1747931;82;21012;-73
2022/06/01 07:59:37;;;;;;;22.60;7.42;;;;;;;31.73;100.00;99938.58;1748171;82;21023;-73
2022/06/01 08:02:09;;;;;;;16.93;6.72;;;;;;;31.88;100.00;99938.77;1747953;82;21083;-74
2022/06/01 08:04:34;;;;;;;12.82;5.80;;;;;;;32.11;100.00;99934.04;1743948;82;21132;-74
2022/06/01 08:07:02;;;;;;;17.57;5.95;;;;;;;32.30;100.00;99934.42;1748269;82;21082;-73
2022/06/01 08:09:28;;;;;;;15.88;6.50;;;;;;;32.34;100.00;99926.45;1748077;82;21027;-76
2022/06/01 08:14:40;;;;;;;22.50;7.03;;;;;;;32.71;100.00;99917.37;1748613;82;21556;-77
2022/06/01 08:17:08;;;;;;;32.80;7.60;;;;;;;32.87;100.00;99923.95;1747441;82;21133;-74
2022/06/01 08:19:35;;;;;;;20.52;6.37;;;;;;;33.04;100.00;99925.97;1747312;82;21564;-72
2022/06/01 08:22:02;;;;;;;14.60;5.95;;;;;;;33.18;100.00;99919.70;1747132;82;21032;-71
2022/06/01 08:24:30;;;;;;;14.53;5.92;;;;;;;33.28;100.00;99919.98;1747780;82;21019;-73
2022/06/01 08:26:57;;;;;;;18.10;6.62;;;;;;;33.27;100.00;99913.56;1742923;82;21056;-76
2022/06/01 08:29:25;;;;;;;26.17;8.85;;;;;;;33.21;100.00;99919.64;1737768;83;21030;-74
2022/06/01 08:31:52;;;;;;;16.62;7.05;;;;;;;33.32;100.00;99918.75;1737456;83;21112;-75
2022/06/01 08:34:20;;;;;;;20.08;7.20;;;;;;;33.46;93.71;99920.24;1737250;83;21039;-74
2022/06/01 08:36:47;;;;;;;21.52;6.55;;;;;;;33.58;87.79;99917.39;1737520;83;21047;-75
2022/06/01 08:39:14;;;;;;;17.30;6.40;;;;;;;33.46;92.71;99919.42;1733505;83;21063;-74
2022/06/01 08:41:41;;;;;;;15.32;6.20;;;;;;;33.59;94.04;99916.22;1729760;83;21059;-78
2022/06/01 08:44:28;;;;;;;19.37;7.58;;;;;;;33.68;96.82;99917.09;1730081;82;21372;-74
2022/06/01 08:47:02;;;;;;;21.50;6.80;;;;;;;33.84;92.87;99915.44;1723570;82;21548;-76
2022/06/01 08:49:30;;;;;;;;;;;;;;;33.99;94.84;99911.30;1714003;84;21026;-75
2022/06/01 08:51:57;;;;;;;20.32;6.72;;;;;;;34.20;95.03;99909.24;1713757;84;20428;-77
2022/06/01 08:54:24;;;;;;;17.42;6.55;;;;;;;34.44;94.08;99915.71;1713758;84;21069;-76
2022/06/01 08:56:55;;;;;;;16.17;7.50;;;;;;;34.59;88.48;99912.92;1714600;84;21049;-77
2022/06/01 08:59:42;;;;;;;14.50;6.30;;;;;;;34.50;86.41;99919.16;1714776;84;21089;-78
2022/06/01 09:02:59;;;;;;;21.37;7.28;;;;;;;34.26;87.84;99919.11;1724538;83;21074;-76
2022/06/01 09:05:46;;;;;;;20.37;7.95;;;;;;;34.09;89.36;99916.30;1714181;84;21061;-77
2022/06/01 09:08:57;;;;;;;21.97;7.40;;;;;;;33.98;92.34;99919.48;1714183;84;21096;-79
2022/06/01 09:11:33;;;;;;;19.12;6.40;;;;;;;33.98;92.78;99919.48;1715639;83;21558;-76
2022/06/01 09:14:20;;;;;;;26.27;6.90;;;;;;;33.92;83.33;99925.58;1715540;84;21683;-77
2022/06/01 09:16:50;;;;;;;20.08;6.75;;;;;;;33.69;83.51;99920.72;1659053;86;21105;-76
2022/06/01 09:19:25;;;;;;;17.62;6.33;;;;;;;33.66;85.58;99917.42;1659419;86;21052;-76
2022/06/01 09:24:43;;;;;;;21.37;5.58;;;;;;;33.76;84.51;99918.24;1589763;90;21124;-70
2022/06/01 09:27:12;;;;;;;16.05;5.42;;;;;;;33.64;80.21;99918.86;1581095;90;21519;-72
2022/06/01 09:29:49;;;;;;;16.60;6.37;;;;;;;33.53;81.98;99917.55;1590432;90;21089;-70
2022/06/01 09:32:32;;;;;;;20.23;6.58;;;;;;;33.54;85.74;99923.38;1604343;89;21030;-71
2022/06/01 09:35:10;;;;;;;20.43;5.85;;;;;;;33.48;83.25;99919.92;1605305;89;21106;-77
2022/06/01 09:37:43;;;;;;;16.65;5.70;;;;;;;33.38;79.03;99919.67;1604612;89;21029;-75
2022/06/01 09:40:28;;;;;;;14.75;5.05;;;;;;;33.24;80.56;99919.81;1575687;89;21074;-77
2022/06/01 09:43:00;;;;;;;17.00;6.00;;;;;;;33.26;78.99;99920.89;1538871;93;21177;-75
2022/06/01 09:45:41;;;;;;;21.17;5.83;;;;;;;33.13;77.42;99919.88;1579099;91;21177;-77
2022/06/01 09:48:28;;;;;;;17.98;5.45;;;;;;;33.13;84.74;99919.88;1602120;89;21082;-79
2022/06/01 09:51:12;;;;;;;16.23;5.97;;;;;;;33.32;87.73;99921.55;1607033;89;21133;-80
2022/06/01 09:53:46;;;;;;;16.25;5.12;;;;;;;33.48;88.39;99922.72;1605820;89;21050;-77
2022/06/01 09:56:32;;;;;;;12.90;5.40;;;;;;;33.69;83.25;99920.72;1607823;89;21046;-70
2022/06/01 10:07:27;;;;;;;18.25;5.62;;;;;;;34.33;87.12;99924.22;1581106;91;21171;-72
2022/06/01 10:10:04;;;;;;;15.28;6.30;;;;;;;34.59;78.04;99917.95;1566270;92;21089;-78
2022/06/01 10:12:49;;;;;;;13.90;5.55;;;;;;;34.76;81.06;99917.10;1581819;91;21141;-77
2022/06/01 10:15:30;;;;;;;20.25;5.80;;;;;;;35.04;78.01;99920.02;1585295;89;21102;-79
2022/06/01 10:18:02;;;;;;;22.70;6.12;;;;;;;35.11;74.57;99922.52;1577571;91;21053;-76
2022/06/01 10:20:45;;;;;;;24.50;6.50;;;;;;;35.27;79.03;99913.55;1581794;89;21091;-78
2022/06/01 10:23:26;;;;;;;16.67;5.33;;;;;;;35.59;77.31;99920.42;1596781;90;21138;-78
2022/06/01 10:26:02;;;;;;;25.23;5.90;;;;;;;35.85;65.01;99918.02;1620562;88;21058;-76
2022/06/01 10:28:40;;;;;;;22.58;6.60;;;;;;;35.69;64.87;99914.39;1629613;86;21086;-76
2022/06/01 10:31:36;;;;;;;14.65;5.12;;;;;;;35.76;68.46;99920.09;1688944;85;21583;-74
2022/06/01 10:34:24;;;;;;;25.92;6.75;;;;;;;36.07;63.70;99918.21;1726586;83;21052;-75
2022/06/01 10:37:31;;;;;;;20.55;5.80;;;;;;;36.15;57.61;99918.72;1727353;83;21039;-75
2022/06/01 10:40:13;;;;;;;15.20;5.08;;;;;;;35.79;50.85;99920.23;1709021;83;21377;-76
2022/06/01 10:43:18;;;;;;;19.77;5.83;;;;;;;35.45;56.37;99914.24;1698113;84;21085;-75
2022/06/01 10:45:53;;;;;;;14.13;5.75;;;;;;;35.37;63.27;99910.34;1696688;84;21081;-75
2022/06/01 10:48:30;;;;;;;16.93;5.20;;;;;;;35.52;70.54;99915.92;1697729;83;21069;-76
2022/06/01 10:51:14;;;;;;;15.53;5.97;;;;;;;35.80;66.80;99915.41;1721539;83;21061;-76
2022/06/01 10:54:07;;;;;;;20.77;5.55;;;;;;;35.70;68.44;99912.42;1721685;83;21544;-78
2022/06/01 10:56:34;;;;;;;15.32;5.42;;;;;;;35.81;73.60;99917.89;1693884;85;21102;-75
2022/06/01 10:59:07;;;;;;;17.95;5.85;;;;;;;36.06;72.61;99910.37;1694808;85;21071;-78
2022/06/01 11:01:47;;;;;;;17.35;5.90;;;;;;;36.21;72.41;99906.12;1695593;85;21079;-76
2022/06/01 11:04:45;;;;;;;15.25;5.45;;;;;;;36.29;71.53;99915.64;1696156;85;21497;-78
2022/06/01 11:07:29;;;;;;;17.62;5.75;;;;;;;36.23;67.32;99912.78;1696473;85;21008;-69
2022/06/01 11:10:10;;;;;;;19.17;5.75;;;;;;;36.00;66.88;99910.36;1692685;85;21031;-72
2022/06/01 11:13:21;;;;;;;16.05;5.50;;;;;;;35.88;70.31;99914.53;1692977;85;21035;-70
2022/06/01 11:16:11;;;;;;;13.22;5.42;;;;;;;35.95;73.76;99906.91;1695080;85;21054;-69
2022/06/01 11:19:15;;;;;;;11.65;4.87;;;;;;;35.97;71.35;99907.41;1695168;85;21098;-71
2022/06/01 11:22:05;;;;;;;16.25;5.28;;;;;;;35.69;69.00;99905.14;1691216;85;21136;-70
2022/06/01 11:25:03;;;;;;;11.83;5.33;;;;;;;35.55;72.76;99906.23;1690684;85;21108;-71
2022/06/01 11:27:38;;;;;;;13.90;5.58;;;;;;;35.70;78.39;99906.80;1691456;85;21026;-78
2022/06/01 11:30:16;;;;;;;13.93;5.03;;;;;;;36.14;78.71;99907.25;1689500;85;21148;-73
2022/06/01 11:33:00;;;;;;;19.70;5.80;;;;;;;36.39;71.52;99905.91;1689397;85;21065;-71
2022/06/01 11:35:49;;;;;;;22.85;6.10;;;;;;;36.47;70.89;99908.63;1672116;85;21069;-78
2022/06/01 11:38:39;;;;;;;18.73;5.65;;;;;;;36.41;69.52;99910.63;1689325;84;21126;-76
2022/06/01 11:41:14;;;;;;;20.00;5.87;;;;;;;36.23;72.90;99905.19;1660332;86;21053;-77
2022/06/01 11:43:46;;;;;;;17.48;5.55;;;;;;;36.35;71.69;99907.19;1606957;89;21555;-78
2022/06/01 11:46:22;;;;;;;13.48;4.85;;;;;;;36.18;70.10;99909.59;1609629;88;21575;-78
2022/06/01 11:48:58;;;;;;;21.25;5.58;;;;;;;35.86;69.98;99910.65;1625185;88;21061;-76
2022/06/01 11:51:45;;;;;;;16.90;5.37;;;;;;;35.61;73.85;99898.44;1624684;88;21057;-77
2022/06/01 11:57:18;;;;;;;14.93;5.17;;;;;;;35.74;79.10;99900.75;1619029;87;21055;-77
2022/06/01 11:59:52;;;;;;;20.85;5.58;;;;;;;35.64;73.61;99899.12;1639290;87;21023;-75
2022/06/01 12:02:47;;;;;;;20.43;5.97;;;;;;;35.34;75.60;99901.18;1639184;87;21051;-76
2022/06/01 12:05:31;;;;;;;14.43;5.35;;;;;;;35.34;82.41;99900.63;1639098;87;21086;-76
2022/06/01 12:08:05;;;;;;;15.15;5.42;;;;;;;35.50;85.32;99896.62;1638793;87;21142;-75
2022/06/01 12:10:48;;;;;;;17.60;5.65;;;;;;;35.62;78.24;99895.03;1595431;87;21035;-77
2022/06/01 12:13:34;;;;;;;14.30;5.45;;;;;;;35.71;80.46;99893.80;1638626;87;21102;-76
2022/06/01 12:16:18;;;;;;;19.65;6.28;;;;;;;35.74;81.55;99896.52;1589862;90;21152;-77
2022/06/01 12:18:59;;;;;;;27.85;6.17;;;;;;;35.78;83.05;99895.25;1591273;89;21132;-77